Time;durP1;ratioP1;P1;durP2;ratioP2;P2;SDS_P1;SDS_P2;PMS_P1;PMS_P2;Temp;Humidity;BMP_temperature;BMP_pressure;BME280_temperature;BME280_humidity;BME280_pressure;Samples;Min_cycle;Max_cycle;Signal;HPM_P1;HPM_P2
2022/06/17 00:00:53;;;;;;;6.00;4.28;;;;;;;14.23;76.97;98884.78;2597237;28;20571;-78
2022/06/17 00:02:09;;;;;;;6.82;4.30;;;;;;;14.18;76.94;98889.31;2597041;28;20057;-78
2022/06/17 00:03:27;;;;;;;5.05;3.67;;;;;;;14.13;77.12;98893.00;2597348;28;20052;-78
2022/06/17 00:04:42;;;;;;;5.97;4.05;;;;;;;14.00;77.68;98889.06;2596862;28;20045;-78
2022/06/17 00:06:00;;;;;;;4.68;3.75;;;;;;;13.96;78.79;98896.22;2597088;28;20715;-79
2022/06/17 00:07:16;;;;;;;5.60;4.07;;;;;;;13.93;79.53;98898.94;2595980;28;20068;-83
2022/06/17 00:08:38;;;;;;;4.60;4.03;;;;;;;13.91;79.58;98895.53;2596325;28;20452;-80
2022/06/17 00:09:54;;;;;;;7.05;4.15;;;;;;;13.90;79.83;98895.56;2597108;28;20049;-79
2022/06/17 00:11:15;;;;;;;5.93;4.30;;;;;;;13.90;79.57;98893.81;2597347;28;20053;-78
2022/06/17 00:12:30;;;;;;;6.47;4.15;;;;;;;14.00;78.18;98898.75;2597201;28;20499;-78
2022/06/17 00:13:46;;;;;;;5.55;3.85;;;;;;;13.80;78.84;98900.28;2596879;28;20075;-80
2022/06/17 00:15:14;;;;;;;7.55;3.78;;;;;;;13.71;79.13;98898.81;2597289;28;20428;-79
2022/06/17 00:16:30;;;;;;;5.78;4.13;;;;;;;13.69;79.40;98900.66;2596709;28;20080;-77
2022/06/17 00:17:54;;;;;;;4.55;4.13;;;;;;;13.66;79.64;98909.50;2597102;28;20608;-78
2022/06/17 00:19:11;;;;;;;4.50;3.97;;;;;;;13.62;79.89;98914.91;2597355;28;20049;-77
2022/06/17 00:20:26;;;;;;;8.60;3.78;;;;;;;13.61;80.53;98915.81;2596945;28;20072;-78
2022/06/17 00:21:46;;;;;;;5.70;3.70;;;;;;;13.60;81.03;98912.34;2597066;28;20076;-77
2022/06/17 00:23:02;;;;;;;5.97;3.70;;;;;;;13.63;81.27;98912.25;2596945;28;20077;-78
2022/06/17 00:24:22;;;;;;;4.43;3.83;;;;;;;13.62;82.58;98910.53;2597032;28;20045;-83
2022/06/17 00:25:38;;;;;;;4.80;3.60;;;;;;;13.62;82.32;98920.16;2597347;28;20092;-79
2022/06/17 00:26:54;;;;;;;6.93;3.80;;;;;;;13.61;81.84;98914.06;2597264;28;20637;-78
2022/06/17 00:28:19;;;;;;;4.35;3.70;;;;;;;13.77;80.28;98913.56;2596423;28;20053;-79
2022/06/17 00:29:35;;;;;;;4.30;3.78;;;;;;;13.88;79.16;98916.69;2597152;28;20088;-78
2022/06/17 00:30:51;;;;;;;4.20;3.78;;;;;;;14.08;77.83;98917.75;2596898;28;20064;-79
2022/06/17 00:32:07;;;;;;;5.28;3.58;;;;;;;14.14;77.24;98912.31;2597204;28;20315;-78
2022/06/17 00:33:23;;;;;;;4.20;3.45;;;;;;;14.22;76.88;98912.03;2596959;28;20519;-77
2022/06/17 00:34:38;;;;;;;4.20;3.47;;;;;;;14.12;77.57;98906.22;2596948;28;20076;-78
2022/06/17 00:35:55;;;;;;;5.20;3.40;;;;;;;14.07;77.71;98919.56;2596980;28;20066;-77
2022/06/17 00:37:14;;;;;;;6.35;3.55;;;;;;;14.08;77.32;98909.88;2597186;28;20176;-77
2022/06/17 00:38:32;;;;;;;4.28;3.20;;;;;;;14.08;77.18;98909.88;2597037;28;20077;-77
2022/06/17 00:39:47;;;;;;;4.75;3.80;;;;;;;14.04;78.34;98909.13;2596586;28;20053;-76
2022/06/17 00:41:41;;;;;;;6.55;3.47;;;;;;;14.00;79.84;98904.88;2596981;28;20463;-78
2022/06/17 00:43:02;;;;;;;3.78;3.17;;;;;;;13.96;79.61;98908.53;2594602;28;20049;-78
2022/06/17 00:44:34;;;;;;;5.57;3.53;;;;;;;13.91;79.65;98913.94;2596779;28;20045;-79
2022/06/17 00:46:17;;;;;;;3.63;3.33;;;;;;;13.92;80.37;98912.19;2596700;28;20088;-79
2022/06/17 00:47:38;;;;;;;;;;;;;;;13.87;80.07;98909.72;2597936;28;20463;-78
2022/06/17 00:49:04;;;;;;;3.92;3.08;;;;;;;13.89;79.44;98912.25;2596289;28;19933;-78
2022/06/17 00:50:29;;;;;;;4.95;3.33;;;;;;;13.81;80.05;98904.63;2597156;28;20139;-78
2022/06/17 00:52:00;;;;;;;4.47;3.47;;;;;;;13.80;80.37;98910.81;2597434;28;20053;-79
2022/06/17 00:53:24;;;;;;;3.47;3.17;;;;;;;13.80;80.02;98903.78;2596909;28;20050;-78
2022/06/17 00:54:50;;;;;;;4.00;3.55;;;;;;;13.81;79.77;98900.25;2596794;28;20052;-78
2022/06/17 00:56:16;;;;;;;5.13;3.50;;;;;;;13.81;80.82;98904.63;2597082;28;20053;-78
2022/06/17 00:57:38;;;;;;;6.00;3.75;;;;;;;13.83;79.96;98914.19;2597119;28;20492;-78
2022/06/17 00:58:56;;;;;;;3.90;3.10;;;;;;;13.84;80.68;98912.44;2596281;28;20084;-78
2022/06/17 01:00:20;;;;;;;4.13;3.50;;;;;;;13.85;80.60;98903.63;2596924;28;20053;-78
2022/06/17 01:01:50;;;;;;;6.57;4.07;;;;;;;13.88;80.41;98908.78;2596744;28;20721;-78
2022/06/17 01:03:09;;;;;;;4.82;4.05;;;;;;;13.93;80.55;98909.47;2596353;28;20064;-78
2022/06/17 01:04:38;;;;;;;6.35;3.65;;;;;;;13.91;80.28;98913.09;2596486;28;20045;-78
2022/06/17 01:06:01;;;;;;;3.58;3.22;;;;;;;13.84;80.93;98902.75;2596317;28;20084;-78
2022/06/17 01:07:27;;;;;;;4.55;3.53;;;;;;;13.82;80.62;98911.63;2596623;28;20209;-78
2022/06/17 01:10:48;;;;;;;4.82;3.80;;;;;;;13.74;81.61;98905.75;2596338;28;20516;-78
2022/06/17 01:12:08;;;;;;;4.82;3.45;;;;;;;13.70;81.69;98910.25;2596247;28;20050;-77
2022/06/17 01:13:24;;;;;;;3.78;3.38;;;;;;;13.63;81.30;98916.66;2596428;28;20084;-78
2022/06/17 01:14:42;;;;;;;4.53;3.50;;;;;;;13.62;80.93;98914.91;2596629;28;20052;-78
2022/06/17 01:15:58;;;;;;;5.57;4.05;;;;;;;13.60;81.44;98904.44;2596503;28;20050;-78
2022/06/17 01:17:16;;;;;;;3.92;3.53;;;;;;;13.59;81.37;98910.63;2596565;28;20145;-78
2022/06/17 01:18:36;;;;;;;3.95;3.30;;;;;;;13.57;81.70;98912.47;2596817;28;20053;-78
2022/06/17 01:19:55;;;;;;;3.75;3.45;;;;;;;13.52;81.66;98904.72;2596489;28;20564;-80
2022/06/17 01:21:25;;;;;;;7.45;3.53;;;;;;;13.51;81.61;98908.25;2596286;28;20084;-77
2022/06/17 01:22:47;;;;;;;4.68;3.40;;;;;;;13.48;81.55;98905.72;2596561;28;20056;-78
2022/06/17 01:24:03;;;;;;;5.00;3.42;;;;;;;13.39;80.94;98908.59;2596645;28;20104;-78
2022/06/17 01:25:23;;;;;;;4.28;3.80;;;;;;;13.36;80.75;98909.56;2596736;28;20060;-78
2022/06/17 01:26:38;;;;;;;5.05;3.55;;;;;;;13.23;81.17;98913.47;2596208;28;20057;-78
2022/06/17 01:27:58;;;;;;;7.03;3.50;;;;;;;13.15;82.01;98905.84;2596340;28;20057;-78
2022/06/17 01:29:14;;;;;;;4.22;3.35;;;;;;;13.08;82.27;98913.06;2596099;28;20061;-78
2022/06/17 01:30:34;;;;;;;7.03;3.75;;;;;;;13.01;82.64;98916.78;2596290;28;20075;-78
2022/06/17 01:31:53;;;;;;;5.75;3.72;;;;;;;12.98;83.77;98914.22;2596101;28;20056;-78
2022/06/17 01:33:15;;;;;;;4.40;3.15;;;;;;;12.98;83.63;98911.59;2596619;28;20053;-78
2022/06/17 01:34:31;;;;;;;4.70;3.40;;;;;;;12.93;83.97;98922.28;2596735;28;20056;-79
2022/06/17 01:35:54;;;;;;;3.97;3.38;;;;;;;12.97;83.67;98915.13;2596691;28;20049;-78
2022/06/17 01:37:10;;;;;;;5.28;3.53;;;;;;;12.97;83.52;98920.41;2596124;28;20049;-79
2022/06/17 01:38:28;;;;;;;5.82;3.40;;;;;;;12.97;83.67;98926.53;2596309;28;20558;-79
2022/06/17 01:39:45;;;;;;;5.10;3.33;;;;;;;12.95;83.83;98920.47;2595784;28;20241;-79
2022/06/17 01:41:02;;;;;;;5.95;3.38;;;;;;;12.91;83.60;98921.44;2595995;28;20531;-78
2022/06/17 01:42:19;;;;;;;4.45;3.30;;;;;;;12.88;83.51;98923.31;2596198;28;20053;-78
2022/06/17 01:43:56;;;;;;;3.90;3.20;;;;;;;12.83;84.33;98929.56;2596111;28;20050;-78
2022/06/17 01:45:12;;;;;;;3.92;3.22;;;;;;;12.80;84.33;98928.81;2596089;28;20085;-79
2022/06/17 01:46:43;;;;;;;4.20;3.33;;;;;;;12.78;84.51;98928.84;2595863;28;20050;-77
2022/06/17 01:48:00;;;;;;;4.82;3.63;;;;;;;12.75;84.64;98928.94;2596008;28;20603;-77
2022/06/17 01:49:30;;;;;;;4.43;3.30;;;;;;;12.69;84.64;98939.59;2596237;28;20081;-76
2022/06/17 01:50:48;;;;;;;4.57;3.42;;;;;;;12.66;84.81;98942.31;2596114;28;20468;-78
2022/06/17 01:52:20;;;;;;;3.63;3.25;;;;;;;12.63;85.44;98942.41;2596295;28;20437;-78
2022/06/17 01:53:42;;;;;;;4.22;3.67;;;;;;;12.64;85.51;98936.25;2596200;28;20053;-77
2022/06/17 01:55:05;;;;;;;7.32;3.35;;;;;;;12.61;86.49;98941.59;2595825;28;20146;-78
2022/06/17 01:56:25;;;;;;;5.15;4.07;;;;;;;12.68;86.76;98944.00;2596091;28;20053;-80
2022/06/17 01:57:49;;;;;;;4.57;3.65;;;;;;;12.59;86.12;98943.41;2596322;28;20581;-78
2022/06/17 01:59:10;;;;;;;4.78;3.67;;;;;;;12.52;86.31;98948.81;2596112;28;20122;-78
2022/06/17 02:00:27;;;;;;;4.55;3.83;;;;;;;12.52;86.06;98943.56;2595433;28;20546;-79
2022/06/17 02:01:47;;;;;;;4.00;3.38;;;;;;;12.49;87.79;98942.78;2595809;28;20125;-78
2022/06/17 02:03:08;;;;;;;3.95;3.50;;;;;;;12.50;88.10;98937.50;2595997;28;20132;-77
2022/06/17 02:04:30;;;;;;;5.50;4.00;;;;;;;12.52;87.56;98942.72;2596132;28;20088;-79
2022/06/17 02:05:52;;;;;;;4.70;3.38;;;;;;;12.50;87.83;98939.25;2596037;28;20057;-82
2022/06/17 02:07:33;;;;;;;4.60;3.20;;;;;;;12.53;87.32;98945.28;2596432;28;20091;-79
2022/06/17 02:08:51;;;;;;;4.05;3.65;;;;;;;12.49;87.17;98945.41;2595931;28;20053;-78
2022/06/17 02:10:07;;;;;;;5.63;3.72;;;;;;;12.50;87.05;98942.75;2596036;28;20049;-79
2022/06/17 02:11:23;;;;;;;4.60;3.55;;;;;;;12.44;87.11;98948.19;2595693;28;20045;-78
2022/06/17 02:12:39;;;;;;;4.22;3.42;;;;;;;12.37;87.55;98954.50;2596269;28;20056;-78
2022/06/17 02:13:55;;;;;;;3.80;3.38;;;;;;;12.33;87.51;98952.88;2596579;28;20060;-78
2022/06/17 02:15:11;;;;;;;5.78;3.50;;;;;;;12.30;88.05;98956.44;2596325;28;20458;-79
2022/06/17 02:16:26;;;;;;;3.80;3.28;;;;;;;12.26;88.66;98962.69;2596042;28;20504;-77
2022/06/17 02:17:44;;;;;;;6.60;3.47;;;;;;;12.23;89.17;98955.72;2595954;28;20392;-78
2022/06/17 02:19:00;;;;;;;5.28;3.60;;;;;;;12.20;89.06;98961.06;2595830;28;20050;-77
2022/06/17 02:20:17;;;;;;;5.40;3.30;;;;;;;12.18;88.58;98959.38;2595821;28;20439;-77
2022/06/17 02:21:38;;;;;;;5.13;3.75;;;;;;;12.16;88.89;98967.31;2596138;28;20045;-79
2022/06/17 02:22:56;;;;;;;5.30;3.45;;;;;;;12.12;89.32;98963.91;2595958;28;20057;-77
2022/06/17 02:24:12;;;;;;;5.45;3.72;;;;;;;12.09;89.27;98965.72;2595944;28;20692;-82
2022/06/17 02:25:34;;;;;;;5.32;3.80;;;;;;;12.09;89.38;98970.97;2596250;28;20072;-77
2022/06/17 02:26:49;;;;;;;4.53;3.30;;;;;;;12.06;89.46;98969.28;2596057;28;20088;-77
2022/06/17 02:28:07;;;;;;;4.22;3.33;;;;;;;12.02;89.48;98961.56;2595609;28;20495;-78
2022/06/17 02:29:23;;;;;;;6.20;3.47;;;;;;;12.00;89.21;98966.81;2596018;28;20049;-77
2022/06/17 02:30:41;;;;;;;6.65;4.07;;;;;;;11.98;89.68;98965.97;2596282;28;20045;-77
2022/06/17 02:31:59;;;;;;;6.55;3.50;;;;;;;11.94;89.52;98973.06;2596083;28;20076;-78
2022/06/17 02:33:16;;;;;;;7.95;3.75;;;;;;;11.90;89.97;98981.03;2595589;28;20068;-79
2022/06/17 02:34:32;;;;;;;5.20;3.63;;;;;;;11.81;89.81;98977.75;2595680;28;20085;-78
2022/06/17 02:36:20;;;;;;;5.20;3.28;;;;;;;11.78;89.64;98987.47;2595930;28;20041;-78
2022/06/17 02:37:35;;;;;;;5.30;3.40;;;;;;;11.71;90.77;98992.84;2595354;28;20453;-79
2022/06/17 02:38:52;;;;;;;5.70;3.58;;;;;;;11.69;90.96;98991.16;2596019;28;20107;-78
2022/06/17 02:40:30;;;;;;;4.93;3.67;;;;;;;11.69;91.31;98988.56;2596180;28;20056;-79
2022/06/17 02:41:48;;;;;;;3.92;3.42;;;;;;;11.68;91.32;98981.59;2595164;28;20111;-78
2022/06/17 02:43:06;;;;;;;4.50;3.03;;;;;;;11.66;91.43;98989.47;2589595;28;20056;-81
2022/06/17 02:44:35;;;;;;;5.55;3.42;;;;;;;11.66;91.50;98992.09;2592022;28;20049;-83
2022/06/17 02:45:58;;;;;;;3.92;3.45;;;;;;;11.69;91.32;98988.56;2594987;28;20057;-78
2022/06/17 02:47:14;;;;;;;4.82;3.35;;;;;;;11.68;91.34;98992.91;2595886;28;20076;-78
2022/06/17 02:48:55;;;;;;;4.90;3.65;;;;;;;11.65;91.15;98993.00;2595865;28;20053;-81
2022/06/17 02:50:18;;;;;;;4.57;3.83;;;;;;;11.64;91.07;98993.03;2595845;28;20054;-78
2022/06/17 02:51:39;;;;;;;4.45;3.55;;;;;;;11.61;90.86;98990.47;2595446;28;20050;-78
2022/06/17 02:52:56;;;;;;;3.92;3.55;;;;;;;11.58;90.87;98997.53;2595569;28;20046;-78
2022/06/17 02:54:21;;;;;;;4.97;3.72;;;;;;;11.54;90.70;99001.13;2594842;28;20068;-78
2022/06/17 02:55:40;;;;;;;7.88;3.60;;;;;;;11.44;91.07;98994.34;2595281;28;20057;-80
2022/06/17 02:56:57;;;;;;;5.43;3.50;;;;;;;11.36;90.98;98993.66;2595038;28;20241;-78
2022/06/17 02:58:15;;;;;;;9.45;3.95;;;;;;;11.33;90.16;98999.84;2595485;28;20073;-78
2022/06/17 02:59:40;;;;;;;4.70;3.60;;;;;;;11.45;90.83;99006.56;2595868;28;20045;-78
2022/06/17 03:00:58;;;;;;;4.38;3.38;;;;;;;11.40;91.24;99011.06;2595272;28;20045;-78
2022/06/17 03:02:20;;;;;;;5.40;3.80;;;;;;;11.31;91.37;99006.84;2595428;28;20047;-80
2022/06/17 03:03:36;;;;;;;4.88;3.60;;;;;;;11.24;91.75;99008.75;2595436;28;20072;-78
2022/06/17 03:04:53;;;;;;;4.97;3.60;;;;;;;11.22;92.14;99004.47;2595064;28;20443;-79
2022/06/17 03:06:18;;;;;;;4.68;3.60;;;;;;;11.21;92.21;99014.06;2595279;28;20052;-79
2022/06/17 03:07:33;;;;;;;5.00;3.90;;;;;;;11.20;92.61;99016.72;2595030;28;20053;-79
2022/06/17 03:08:51;;;;;;;4.65;3.42;;;;;;;11.20;92.83;99019.34;2595059;28;20065;-80
2022/06/17 03:10:16;;;;;;;5.60;3.63;;;;;;;11.18;92.56;99019.38;2595500;28;20429;-79
2022/06/17 03:11:32;;;;;;;4.30;3.67;;;;;;;11.20;92.85;99022.81;2596015;28;20089;-78
2022/06/17 03:12:56;;;;;;;7.03;3.72;;;;;;;11.16;93.52;99019.41;2597765;28;20742;-79
2022/06/17 03:14:12;;;;;;;4.72;3.85;;;;;;;11.18;93.68;99023.78;2598054;28;20887;-79
2022/06/17 03:15:28;;;;;;;5.10;3.80;;;;;;;11.18;93.81;99023.78;2598130;28;20095;-79
2022/06/17 03:16:44;;;;;;;6.05;3.60;;;;;;;11.19;93.83;99021.09;2597788;28;20065;-81
2022/06/17 03:17:59;;;;;;;7.35;3.83;;;;;;;11.18;93.85;99015.91;2597956;28;20397;-78
2022/06/17 03:19:15;;;;;;;4.68;3.33;;;;;;;11.19;93.52;99023.72;2597831;28;20056;-78
2022/06/17 03:20:34;;;;;;;4.38;3.83;;;;;;;11.15;93.41;99017.69;2597861;28;20540;-79
2022/06/17 03:21:50;;;;;;;4.25;3.70;;;;;;;11.12;93.40;99030.00;2597718;28;20049;-78
2022/06/17 03:23:29;;;;;;;4.40;3.55;;;;;;;11.06;93.18;99028.38;2597742;28;20046;-78
2022/06/17 03:25:07;;;;;;;5.43;3.42;;;;;;;11.02;93.25;99024.06;2597762;28;20136;-79
2022/06/17 03:26:27;;;;;;;6.72;3.47;;;;;;;11.04;93.51;99026.66;2597677;28;20144;-81
2022/06/17 03:28:09;;;;;;;5.72;3.33;;;;;;;11.04;94.67;99022.31;2597569;28;20077;-79
2022/06/17 03:29:26;;;;;;;5.18;3.78;;;;;;;11.09;95.41;99028.28;2597295;28;20049;-79
2022/06/17 03:30:50;;;;;;;6.43;3.47;;;;;;;11.08;95.61;99029.19;2597213;28;20141;-78
2022/06/17 03:32:13;;;;;;;5.25;3.90;;;;;;;11.14;95.68;99025.59;2597784;28;20049;-79
2022/06/17 03:33:36;;;;;;;5.00;3.80;;;;;;;11.18;95.63;99029.84;2597642;28;20049;-79
2022/06/17 03:34:54;;;;;;;5.47;4.18;;;;;;;11.21;95.80;99023.69;2597912;28;20049;-79
2022/06/17 03:36:16;;;;;;;5.03;4.10;;;;;;;11.24;96.01;99026.25;2597879;28;20049;-79
2022/06/17 03:37:35;;;;;;;6.70;4.00;;;;;;;11.22;96.33;99034.13;2594624;28;20099;-79
2022/06/17 03:38:56;;;;;;;4.68;3.85;;;;;;;11.22;95.65;99030.66;2594372;28;20654;-78
2022/06/17 03:40:17;;;;;;;7.10;3.78;;;;;;;11.24;95.40;99042.81;2595304;28;20076;-79
2022/06/17 03:41:49;;;;;;;5.28;3.58;;;;;;;11.26;95.61;99045.44;2597271;28;20572;-80
2022/06/17 03:43:15;;;;;;;5.40;4.05;;;;;;;11.26;95.98;99042.81;2597221;28;21058;-79
2022/06/17 03:44:37;;;;;;;4.53;3.80;;;;;;;11.30;95.37;99052.31;2597102;28;20046;-78
2022/06/17 03:46:00;;;;;;;6.13;4.20;;;;;;;11.33;95.10;99049.66;2597318;28;20049;-77
2022/06/17 03:47:27;;;;;;;6.25;3.75;;;;;;;11.34;94.37;99051.38;2596757;28;20049;-77
2022/06/17 03:48:49;;;;;;;7.50;4.03;;;;;;;11.34;94.58;99059.25;2597187;28;20049;-78
2022/06/17 03:50:08;;;;;;;4.90;4.40;;;;;;;11.33;95.48;99054.91;2597394;28;20488;-78
2022/06/17 03:51:25;;;;;;;9.60;4.35;;;;;;;11.32;95.80;99057.53;2597105;28;20080;-78
2022/06/17 03:52:49;;;;;;;6.10;4.00;;;;;;;11.30;95.96;99057.56;2596425;28;20060;-77
2022/06/17 03:54:05;;;;;;;4.95;4.20;;;;;;;11.28;96.20;99062.84;2596347;28;20045;-77
2022/06/17 03:55:22;;;;;;;5.65;4.93;;;;;;;11.29;96.29;99064.56;2596888;28;20050;-84
2022/06/17 03:56:40;;;;;;;6.88;4.75;;;;;;;11.32;96.48;99066.28;2596405;28;20098;-77
2022/06/17 03:58:01;;;;;;;6.45;4.28;;;;;;;11.34;96.63;99061.00;2597070;28;20107;-77
2022/06/17 03:59:22;;;;;;;6.80;5.18;;;;;;;11.36;96.75;99065.31;2597738;28;20453;-78
2022/06/17 04:00:58;;;;;;;7.43;4.53;;;;;;;11.38;96.72;99067.88;2596731;28;20518;-77
2022/06/17 04:02:16;;;;;;;7.10;4.90;;;;;;;11.40;97.14;99074.84;2592889;28;20063;-78
2022/06/17 04:03:34;;;;;;;7.10;4.40;;;;;;;11.43;96.80;99081.78;2593909;28;20086;-78
2022/06/17 04:04:53;;;;;;;7.13;4.47;;;;;;;11.46;96.68;99080.88;2596316;28;20045;-81
2022/06/17 04:06:18;;;;;;;6.28;4.18;;;;;;;11.48;96.77;99082.53;2595496;28;20419;-78
2022/06/17 04:07:34;;;;;;;6.15;4.28;;;;;;;11.52;96.83;99078.09;2594473;28;20119;-78
2022/06/17 04:08:56;;;;;;;7.80;4.15;;;;;;;11.55;96.70;99078.03;2596246;28;20049;-78
2022/06/17 04:10:17;;;;;;;6.10;4.40;;;;;;;11.57;96.71;99084.09;2596615;28;20045;-78
2022/06/17 04:11:39;;;;;;;6.00;4.15;;;;;;;11.60;96.28;99078.81;2596950;28;20107;-79
2022/06/17 04:12:55;;;;;;;4.75;3.80;;;;;;;11.65;96.38;99076.94;2597028;28;20053;-80
2022/06/17 04:14:24;;;;;;;7.57;4.93;;;;;;;11.69;96.48;99073.34;2597220;28;20519;-79
2022/06/17 04:16:02;;;;;;;7.18;4.57;;;;;;;11.79;96.46;99081.84;2597097;28;20137;-78
2022/06/17 04:17:29;;;;;;;6.40;4.30;;;;;;;11.80;96.26;99069.59;2596511;28;20056;-77
2022/06/17 04:18:44;;;;;;;8.57;4.47;;;;;;;11.78;96.27;99074.03;2597165;28;20164;-78
2022/06/17 04:20:19;;;;;;;5.15;3.83;;;;;;;11.79;96.38;99078.38;2596732;28;20049;-77
2022/06/17 04:21:35;;;;;;;7.65;4.22;;;;;;;11.81;95.92;99081.81;2594992;28;20076;-79
2022/06/17 04:22:54;;;;;;;6.20;4.70;;;;;;;11.84;95.99;99084.38;2594585;28;20159;-78
2022/06/17 04:24:16;;;;;;;7.32;4.38;;;;;;;11.82;97.15;99087.06;2595586;28;20191;-77
2022/06/17 04:25:41;;;;;;;7.10;4.75;;;;;;;11.92;96.42;99087.69;2595870;28;20057;-78
2022/06/17 04:27:03;;;;;;;5.82;4.60;;;;;;;12.03;95.97;99086.63;2595021;28;20045;-79
2022/06/17 04:28:27;;;;;;;6.30;4.35;;;;;;;12.18;94.32;99086.25;2596147;28;20050;-78
2022/06/17 04:29:45;;;;;;;7.03;4.45;;;;;;;12.27;94.37;99075.50;2597011;28;20057;-78
2022/06/17 04:31:06;;;;;;;6.47;4.57;;;;;;;12.40;93.29;99080.47;2596224;28;20424;-77
2022/06/17 04:32:33;;;;;;;7.50;4.72;;;;;;;12.40;93.09;99070.84;2596574;28;20052;-77
2022/06/17 04:34:10;;;;;;;5.30;4.45;;;;;;;12.45;92.98;99065.47;2596751;28;20049;-78
2022/06/17 04:35:25;;;;;;;6.40;4.65;;;;;;;12.43;93.03;99065.50;2596954;28;20529;-80
2022/06/17 04:36:46;;;;;;;6.28;5.20;;;;;;;12.45;93.05;99060.22;2597301;28;20046;-78
2022/06/17 04:38:02;;;;;;;6.65;5.03;;;;;;;12.50;92.77;99062.69;2597210;28;20423;-79
2022/06/17 04:39:24;;;;;;;8.70;4.75;;;;;;;12.57;92.46;99061.66;2597007;28;20057;-78
2022/06/17 04:40:50;;;;;;;7.10;4.80;;;;;;;12.66;92.40;99065.78;2596454;28;20067;-79
2022/06/17 04:42:12;;;;;;;9.88;4.90;;;;;;;12.69;92.13;99055.19;2596237;28;20049;-78
2022/06/17 04:43:39;;;;;;;6.43;4.93;;;;;;;12.75;91.70;99064.69;2595833;28;20064;-80
2022/06/17 04:44:55;;;;;;;7.97;4.43;;;;;;;12.82;91.53;99063.63;2596035;28;20061;-78
2022/06/17 04:46:22;;;;;;;7.57;4.85;;;;;;;12.81;91.95;99062.75;2596025;28;20108;-78
2022/06/17 04:47:37;;;;;;;8.25;4.88;;;;;;;12.81;92.18;99060.13;2595135;28;20049;-78
2022/06/17 04:48:57;;;;;;;5.35;4.55;;;;;;;12.88;91.29;99063.44;2593441;28;20492;-79
2022/06/17 04:50:17;;;;;;;6.40;4.53;;;;;;;12.94;91.27;99065.91;2594332;28;20111;-79
2022/06/17 04:51:34;;;;;;;7.38;4.75;;;;;;;13.04;91.04;99070.91;2596037;28;20083;-78
2022/06/17 04:52:51;;;;;;;7.75;4.45;;;;;;;13.16;90.19;99064.47;2596493;28;20607;-79
2022/06/17 04:54:07;;;;;;;6.13;4.57;;;;;;;13.22;90.02;99070.41;2595313;28;20508;-78
2022/06/17 04:55:32;;;;;;;5.40;4.60;;;;;;;13.24;90.59;99080.84;2594604;28;20069;-78
2022/06/17 04:56:50;;;;;;;4.28;3.88;;;;;;;13.37;90.07;99081.38;2595576;28;20037;-78
2022/06/17 04:58:07;;;;;;;6.57;4.60;;;;;;;13.37;89.98;99079.59;2595658;28;20199;-78
2022/06/17 04:59:22;;;;;;;13.15;4.50;;;;;;;13.44;89.39;99079.47;2594976;28;20069;-78
2022/06/17 05:00:46;;;;;;;7.13;4.30;;;;;;;13.43;89.67;99081.19;2594029;28;20064;-79
2022/06/17 05:02:06;;;;;;;7.68;4.30;;;;;;;13.49;89.29;99082.81;2595250;28;20087;-79
2022/06/17 05:03:29;;;;;;;6.55;4.57;;;;;;;13.50;89.72;99080.16;2595382;28;20055;-79
2022/06/17 05:04:49;;;;;;;5.82;4.30;;;;;;;13.54;90.00;99091.41;2595402;28;20057;-80
2022/06/17 05:06:04;;;;;;;7.53;4.93;;;;;;;13.67;89.31;99095.41;2596317;28;20512;-78
2022/06/17 05:07:20;;;;;;;9.10;4.78;;;;;;;13.77;89.29;99098.66;2595099;28;20053;-77
2022/06/17 05:08:42;;;;;;;7.38;4.90;;;;;;;13.80;89.23;99095.03;2591600;28;20049;-80
2022/06/17 05:10:02;;;;;;;7.32;4.45;;;;;;;13.93;88.60;99095.53;2593069;28;20558;-77
2022/06/17 05:11:26;;;;;;;6.82;4.38;;;;;;;13.97;88.96;99099.78;2595362;28;20096;-76
2022/06/17 05:13:20;;;;;;;6.72;4.53;;;;;;;13.96;88.95;99098.91;2596664;28;21076;-79
2022/06/17 05:14:45;;;;;;;4.68;4.07;;;;;;;14.12;87.27;99099.28;2594779;28;20475;-78
2022/06/17 05:16:01;;;;;;;6.95;4.47;;;;;;;14.18;87.16;99095.59;2596328;28;20154;-77
2022/06/17 05:17:17;;;;;;;6.50;4.45;;;;;;;14.24;86.92;99087.50;2592147;28;20061;-76
2022/06/17 05:18:33;;;;;;;6.47;4.28;;;;;;;14.29;87.11;99089.97;2593008;28;20084;-77
2022/06/17 05:19:49;;;;;;;5.97;4.38;;;;;;;14.38;86.18;99091.44;2596103;28;20683;-76
2022/06/17 05:21:07;;;;;;;5.55;4.13;;;;;;;14.43;86.58;99092.19;2595173;28;20077;-77
2022/06/17 05:22:36;;;;;;;5.60;4.43;;;;;;;14.41;86.92;99091.38;2595475;28;20041;-78
2022/06/17 05:23:55;;;;;;;5.25;3.83;;;;;;;14.51;85.10;99084.84;2594971;28;20181;-80
2022/06/17 05:25:15;;;;;;;4.30;3.78;;;;;;;14.52;84.37;99088.38;2595213;28;20107;-77
2022/06/17 05:26:30;;;;;;;6.30;4.00;;;;;;;14.59;83.10;99089.84;2595164;28;20076;-77
2022/06/17 05:27:46;;;;;;;6.97;4.22;;;;;;;14.77;83.61;99088.41;2594148;28;20101;-78
2022/06/17 05:29:02;;;;;;;5.50;3.90;;;;;;;14.85;83.10;99090.78;2594412;28;20818;-77
2022/06/17 05:30:18;;;;;;;6.05;3.75;;;;;;;14.83;83.30;99087.34;2594512;28;20046;-77
2022/06/17 05:31:35;;;;;;;4.70;3.90;;;;;;;14.89;82.54;99081.00;2595493;28;20045;-76
2022/06/17 05:32:53;;;;;;;8.00;3.85;;;;;;;14.94;82.03;99074.63;2594467;28;20053;-77
2022/06/17 05:34:09;;;;;;;4.55;3.72;;;;;;;14.97;82.23;99077.16;2594229;28;20484;-78
2022/06/17 05:35:26;;;;;;;6.07;3.78;;;;;;;15.00;81.00;99076.19;2594620;28;20108;-77
2022/06/17 05:36:42;;;;;;;6.38;3.72;;;;;;;15.00;81.21;99078.84;2594727;28;20056;-79
2022/06/17 05:37:58;;;;;;;5.25;3.80;;;;;;;15.11;81.29;99087.22;2594261;28;20630;-77
2022/06/17 05:39:13;;;;;;;5.90;3.67;;;;;;;15.22;79.79;99089.47;2595155;28;20076;-77
2022/06/17 05:40:29;;;;;;;11.70;4.28;;;;;;;15.38;79.86;99089.75;2595799;28;20057;-78
2022/06/17 05:41:44;;;;;;;5.15;3.55;;;;;;;15.31;80.14;99096.16;2596135;28;20077;-77
2022/06/17 05:43:00;;;;;;;6.78;3.50;;;;;;;15.44;78.48;99099.22;2594899;28;20251;-77
2022/06/17 05:44:16;;;;;;;5.70;3.72;;;;;;;15.58;78.08;99093.41;2595545;28;20096;-78
2022/06/17 05:45:32;;;;;;;6.85;3.50;;;;;;;15.66;76.91;99096.63;2595814;28;20103;-76
2022/06/17 05:46:48;;;;;;;4.47;3.42;;;;;;;15.80;78.34;99097.88;2595780;28;20057;-77
2022/06/17 05:48:04;;;;;;;5.00;4.00;;;;;;;15.84;77.14;99096.84;2594263;28;20049;-77
2022/06/17 05:49:19;;;;;;;4.65;3.20;;;;;;;15.77;77.01;99092.69;2594805;28;20562;-79
2022/06/17 05:50:35;;;;;;;6.60;3.30;;;;;;;15.91;76.74;99098.31;2595069;28;20049;-76
2022/06/17 05:51:51;;;;;;;5.68;3.30;;;;;;;15.95;75.78;99107.00;2595867;28;20083;-76
2022/06/17 05:53:10;;;;;;;5.57;3.38;;;;;;;16.08;76.15;99097.66;2595419;28;20095;-75
2022/06/17 05:54:25;;;;;;;4.45;3.22;;;;;;;16.14;76.99;99099.19;2595463;28;20059;-75
2022/06/17 05:55:41;;;;;;;7.10;4.07;;;;;;;16.26;75.06;99097.00;2595628;28;20049;-76
2022/06/17 05:56:57;;;;;;;4.65;3.55;;;;;;;16.38;74.43;99089.41;2595851;28;20050;-75
2022/06/17 05:58:13;;;;;;;4.65;3.15;;;;;;;16.52;73.44;99091.47;2595875;28;20049;-75
2022/06/17 05:59:28;;;;;;;5.82;3.53;;;;;;;16.60;73.16;99099.09;2595531;28;20053;-75
2022/06/17 06:00:44;;;;;;;5.13;3.10;;;;;;;16.59;72.65;99096.50;2595761;28;20053;-75
2022/06/17 06:01:59;;;;;;;4.55;3.20;;;;;;;16.61;74.25;99092.00;2595963;28;20056;-75
2022/06/17 06:03:24;;;;;;;4.22;3.40;;;;;;;16.63;74.64;99098.09;2595850;28;20084;-75
2022/06/17 06:04:40;;;;;;;5.03;3.03;;;;;;;16.70;73.65;99101.34;2595712;28;20056;-76
2022/06/17 06:05:55;;;;;;;4.75;3.00;;;;;;;16.65;72.93;99105.03;2595771;28;20485;-76
2022/06/17 06:07:11;;;;;;;4.15;3.05;;;;;;;16.68;73.18;99101.41;2596137;28;20199;-76
2022/06/17 06:08:27;;;;;;;6.38;3.13;;;;;;;16.82;73.19;99107.88;2595200;28;20057;-75
2022/06/17 06:09:42;;;;;;;3.58;3.13;;;;;;;16.99;72.92;99107.16;2595961;28;20069;-75
2022/06/17 06:10:59;;;;;;;4.47;3.28;;;;;;;17.12;72.74;99105.72;2595978;28;20099;-75
2022/06/17 06:12:14;;;;;;;7.03;3.25;;;;;;;17.01;72.85;99108.00;2595885;28;20056;-75
2022/06/17 06:13:30;;;;;;;4.10;3.28;;;;;;;16.99;72.53;99112.47;2596002;28;20059;-76
2022/06/17 06:14:46;;;;;;;4.40;3.20;;;;;;;17.07;72.57;99105.06;2595951;28;20389;-75
2022/06/17 06:16:01;;;;;;;4.82;3.20;;;;;;;17.16;72.32;99098.50;2595611;28;20053;-76
2022/06/17 06:17:17;;;;;;;4.00;2.83;;;;;;;17.22;71.93;99106.19;2595922;28;20049;-77
2022/06/17 06:18:37;;;;;;;5.18;3.17;;;;;;;17.32;71.73;99107.50;2595653;28;20053;-76
2022/06/17 06:19:53;;;;;;;4.53;2.90;;;;;;;17.34;71.49;99096.81;2596028;28;20053;-75
2022/06/17 06:21:08;;;;;;;5.30;3.03;;;;;;;17.39;71.94;99099.25;2595993;28;20045;-76